Barnes, Texas
Current Conditions -  °F | °C
As of 4:53 AM on Saturday 20 Dec 2014 (Local Time) from KLFK Reporting Station
Haze Haze  
Wind Chill: 50°   Ceiling: 600
Heat Index: 50°   Visibility: 6mi
Dew Point: 46°   Wind: 3mph
Humidity: 86%   Direction: 10°N
Pressure: 30.17"   Gusts: NA
Location:  30.9227°N, 94.9311°W
Report Text: KLFK 201053Z AUTO 01003KT 6SM BR OVC006 10/08 A3017 RMK AO2 SLP215 T01000078
Loading
Personal Weather Stations






























Interactive Weather Map New forecast layout! Learn more

10-Day Weather Forecast

Advertisements
Track Severe Weather on mobile